Time;durP1;ratioP1;P1;durP2;ratioP2;P2;SDS_P1;SDS_P2;PMS_P1;PMS_P2;Temp;Humidity;BMP_temperature;BMP_pressure;BME280_temperature;BME280_humidity;BME280_pressure;Samples;Min_cycle;Max_cycle;Signal;HPM_P1;HPM_P2
2022/07/27 00:01:35;;;;;;;;;;;;;;;13.74;100.00;-20528.19;5092122;28;19927;-80
2022/07/27 00:04:06;;;;;;;;;;;;;;;13.80;100.00;-21843.13;5082935;28;19920;-81
2022/07/27 00:06:31;;;;;;;;;;;;;;;13.76;100.00;-22498.69;5084919;28;19916;-77
2022/07/27 00:08:56;;;;;;;;;;;;;;;13.73;100.00;-23154.53;5072507;28;20285;-78
2022/07/27 00:11:21;;;;;;;;;;;;;;;13.74;100.00;-24139.16;5072738;28;19946;-79
2022/07/27 00:13:47;;;;;;;;;;;;;;;13.77;100.00;-24796.19;5088318;28;19920;-78
2022/07/27 00:16:12;;;;;;;;;;;;;;;13.76;100.00;-24795.91;5092623;28;20062;-77
2022/07/27 00:18:38;;;;;;;;;;;;;;;13.75;100.00;-25451.88;5092416;28;19923;-78
2022/07/27 00:21:03;;;;;;;;;;;;;;;13.76;100.00;-25453.94;5072378;28;19923;-79
2022/07/27 00:23:33;;;;;;;;;;;;;;;13.80;100.00;-25455.09;5072736;28;20277;-79
2022/07/27 00:25:58;;;;;;;;;;;;;;;13.82;100.00;-25455.69;5092066;28;19922;-78
2022/07/27 00:28:23;;;;;;;;;;;;;;;13.79;100.00;-25454.97;5085852;28;20011;-79
2022/07/27 00:30:48;;;;;;;;;;;;;;;13.95;100.00;-25459.47;5077224;28;19920;-79
2022/07/27 00:33:15;;;;;;;;;;;;;;;14.03;100.00;-25461.53;5081930;28;20011;-79
2022/07/27 00:35:40;;;;;;;;;;;;;;;14.03;100.00;-25461.53;5087218;28;19912;-80
2022/07/27 00:38:05;;;;;;;;;;;;;;;14.10;100.00;-25463.72;5083989;28;19928;-81
2022/07/27 00:40:31;;;;;;;;;;;;;;;14.11;100.00;-25463.84;5094190;28;20011;-81
2022/07/27 00:42:57;;;;;;;;;;;;;;;14.21;100.00;-25466.78;5052091;28;20293;-78
2022/07/27 00:45:22;;;;;;;;;;;;;;;14.22;100.00;-25467.06;5061146;28;19931;-82
2022/07/27 00:47:48;;;;;;;;;;;;;;;14.28;100.00;-25468.81;5072787;28;19987;-83
2022/07/27 00:50:13;;;;;;;;;;;;;;;14.30;100.00;-25469.25;5085642;28;19924;-83
2022/07/27 00:52:43;;;;;;;;;;;;;;;14.18;100.00;-25465.91;5092749;28;19916;-82
2022/07/27 00:55:08;;;;;;;;;;;;;;;14.13;100.00;-25464.44;5078832;28;19917;-82
2022/07/27 00:57:34;;;;;;;;;;;;;;;14.07;100.00;-25462.84;5071837;28;19916;-79
2022/07/27 00:59:59;;;;;;;;;;;;;;;14.00;100.00;-25460.94;5088459;28;20007;-78
2022/07/27 01:02:25;;;;;;;;;;;;;;;13.97;100.00;-25460.06;5076618;28;20349;-78
2022/07/27 01:04:50;;;;;;;;;;;;;;;13.94;100.00;-25459.19;5106281;28;19917;-78
2022/07/27 01:07:17;;;;;;;;;;;;;;;13.83;100.00;-25455.97;5071953;28;19928;-79
2022/07/27 01:09:55;;;;;;;;;;;;;;;13.54;100.00;-25447.81;5072052;28;19920;-78
2022/07/27 01:12:21;;;;;;;;;;;;;;;13.47;100.00;-25445.78;5070331;28;20434;-78
2022/07/27 01:14:47;;;;;;;;;;;;;;;13.44;100.00;-25444.91;5091236;28;19924;-78
2022/07/27 01:17:12;;;;;;;;;;;;;;;13.40;100.00;-25443.72;5087250;28;19920;-78
2022/07/27 01:19:38;;;;;;;;;;;;;;;13.40;100.00;-25443.72;5071898;28;19917;-79
2022/07/27 01:22:04;;;;;;;;;;;;;;;13.37;100.00;-25442.84;5103880;28;19943;-78
2022/07/27 01:24:30;;;;;;;;;;;;;;;13.42;100.00;-25444.31;5071998;28;19916;-79
2022/07/27 01:26:55;;;;;;;;;;;;;;;13.44;100.00;-25444.91;5086365;28;19928;-79
2022/07/27 01:29:21;;;;;;;;;;;;;;;13.43;100.00;-25444.59;5092192;28;20006;-79
2022/07/27 01:31:46;;;;;;;;;;;;;;;13.33;100.00;-25441.69;5084364;28;19916;-78
2022/07/27 01:34:13;;;;;;;;;;;;;;;13.18;100.00;-25437.44;5071987;28;20372;-78
2022/07/27 01:36:38;;;;;;;;;;;;;;;13.17;100.00;-25437.28;5072758;28;19917;-78
2022/07/27 01:39:03;;;;;;;;;;;;;;;13.12;100.00;-25435.84;5104800;28;19923;-79
2022/07/27 01:41:28;;;;;;;;;;;;;;;13.14;100.00;-25436.28;5072909;28;19970;-78
2022/07/27 01:43:55;;;;;;;;;;;;;;;13.13;100.00;-25436.13;5074517;28;19924;-79
2022/07/27 01:46:20;;;;;;;;;;;;;;;13.11;100.00;-25435.69;5074680;28;19921;-77
2022/07/27 01:48:47;;;;;;;;;;;;;;;13.08;100.00;-25434.66;5090765;28;19927;-80
2022/07/27 01:51:12;;;;;;;;;;;;;;;13.06;100.00;-25434.22;5094506;28;20376;-79
2022/07/27 01:53:38;;;;;;;;;;;;;;;13.06;100.00;-25434.09;5082356;28;19927;-78
2022/07/27 01:56:08;;;;;;;;;;;;;;;13.02;100.00;-25432.91;5075781;28;19928;-82
2022/07/27 01:58:33;;;;;;;;;;;;;;;13.08;100.00;-25434.66;5074467;28;19916;-82
2022/07/27 02:00:59;;;;;;;;;;;;;;;13.03;100.00;-25433.34;5076771;28;20206;-81
2022/07/27 02:03:24;;;;;;;;;;;;;;;13.05;100.00;-25433.78;5092854;28;19975;-81
2022/07/27 02:05:49;;;;;;;;;;;;;;;12.98;100.00;-25431.75;5076844;28;19916;-82
2022/07/27 02:08:15;;;;;;;;;;;;;;;12.92;100.00;-25430.28;5092287;28;19921;-82
2022/07/27 02:12:34;;;;;;;;;;;;;;;12.99;100.00;-25432.03;5075680;28;20011;-82
2022/07/27 02:13:25;;;;;;;;;;;;;;;12.97;100.00;-25431.44;5076297;28;20422;-81
2022/07/27 02:15:50;;;;;;;;;;;;;;;12.93;100.00;-25430.56;5075501;28;20015;-82
2022/07/27 02:18:16;;;;;;;;;;;;;;;12.95;100.00;-25431.00;5075019;28;20276;-82
2022/07/27 02:20:41;;;;;;;;;;;;;;;12.97;100.00;-25431.59;5075099;28;19916;-82
2022/07/27 02:23:06;;;;;;;;;;;;;;;12.92;100.00;-25430.13;5082175;28;19970;-82
2022/07/27 02:25:32;;;;;;;;;;;;;;;12.95;100.00;-25431.00;5095834;28;19931;-83
2022/07/27 02:27:57;;;;;;;;;;;;;;;12.93;100.00;-25430.56;5095094;28;20023;-83
2022/07/27 02:30:22;;;;;;;;;;;;;;;12.91;100.00;-25430.00;5092824;28;20022;-83
2022/07/27 02:32:55;;;;;;;;;;;;;;;12.84;100.00;-25427.94;5089012;28;19942;-83
2022/07/27 02:35:21;;;;;;;;;;;;;;;12.91;100.00;-25429.84;5095342;28;20000;-83
2022/07/27 02:37:47;;;;;;;;;;;;;;;12.95;100.00;-25431.00;5095148;28;19951;-82
2022/07/27 02:40:14;;;;;;;;;;;;;;;13.02;100.00;-25432.91;5082709;28;19924;-79
2022/07/27 02:42:40;;;;;;;;;;;;;;;13.00;100.00;-25432.31;5075136;28;20031;-79
2022/07/27 02:45:06;;;;;;;;;;;;;;;13.01;100.00;-25432.63;5094674;28;19923;-80
2022/07/27 02:47:31;;;;;;;;;;;;;;;13.11;100.00;-25435.53;5094294;28;19916;-79
2022/07/27 02:49:56;;;;;;;;;;;;;;;13.18;100.00;-25437.59;5094461;28;19935;-78
2022/07/27 02:52:22;;;;;;;;;;;;;;;13.17;100.00;-25437.16;5094107;28;20022;-79
2022/07/27 02:54:48;;;;;;;;;;;;;;;13.19;100.00;-25437.88;5075044;28;19963;-81
2022/07/27 02:57:13;;;;;;;;;;;;;;;13.25;100.00;-25439.63;5074138;28;19927;-80
2022/07/27 02:59:39;;;;;;;;;;;;;;;13.35;100.00;-25442.41;5094919;28;20421;-79
2022/07/27 03:02:04;;;;;;;;;;;;;;;13.35;100.00;-25442.41;5093881;28;20482;-78
2022/07/27 03:04:36;;;;;;;;;;;;;;;13.38;100.00;-25443.28;5077723;28;19917;-80
2022/07/27 03:07:02;;;;;;;;;;;;;;;13.38;100.00;-25443.16;5075347;28;19955;-82
2022/07/27 03:09:27;;;;;;;;;;;;;;;13.38;100.00;-25443.16;5084935;28;19916;-79
2022/07/27 03:11:52;;;;;;;;;;;;;;;13.44;100.00;-25444.91;5095444;28;20410;-80
2022/07/27 03:14:24;;;;;;;;;;;;;;;13.46;100.00;-25445.47;5076391;28;20022;-79
2022/07/27 03:16:49;;;;;;;;;;;;;;;13.58;100.00;-25448.84;5094599;28;20018;-80
2022/07/27 03:19:14;;;;;;;;;;;;;;;13.50;100.00;-25446.66;5093969;28;19963;-80
2022/07/27 03:21:40;;;;;;;;;;;;;;;13.61;100.00;-25449.84;5093641;28;19920;-78
2022/07/27 03:24:05;;;;;;;;;;;;;;;13.63;100.00;-25450.44;5093545;28;19920;-78
2022/07/27 03:26:32;;;;;;;;;;;;;;;13.67;100.00;-25451.31;5093950;28;19923;-78
2022/07/27 03:28:57;;;;;;;;;;;;;;;13.65;100.00;-25451.03;5088651;28;19954;-79
2022/07/27 03:31:22;;;;;;;;;;;;;;;13.51;100.00;-25446.94;5073357;28;19967;-79
2022/07/27 03:33:52;;;;;;;;;;;;;;;13.56;100.00;-25448.25;5078215;28;19925;-79
2022/07/27 03:36:17;;;;;;;;;;;;;;;13.52;100.00;-25447.09;5053415;28;19948;-79
2022/07/27 03:38:42;;;;;;;;;;;;;;;13.45;100.00;-25445.34;5053237;28;19948;-78
2022/07/27 03:41:08;;;;;;;;;;;;;;;13.54;100.00;-25447.66;5053008;28;20404;-78
2022/07/27 03:43:34;;;;;;;;;;;;;;;13.54;100.00;-25447.81;5067349;28;19970;-79
2022/07/27 03:46:00;;;;;;;;;;;;;;;13.60;100.00;-25449.41;5076191;28;19916;-77
2022/07/27 03:48:26;;;;;;;;;;;;;;;13.59;100.00;-25449.28;5073293;28;19916;-77
2022/07/27 03:50:51;;;;;;;;;;;;;;;13.60;100.00;-25449.56;5072829;28;19920;-77
2022/07/27 03:53:20;;;;;;;;;;;;;;;13.68;100.00;-25451.75;5078904;28;19927;-79
2022/07/27 03:55:46;;;;;;;;;;;;;;;13.50;100.00;-25446.66;5053507;28;20289;-78
2022/07/27 03:58:11;;;;;;;;;;;;;;;13.61;100.00;-25449.84;5052231;28;19939;-79
2022/07/27 04:00:36;;;;;;;;;;;;;;;13.73;100.00;-25453.06;5085516;28;19923;-80
2022/07/27 04:03:02;;;;;;;;;;;;;;;13.67;100.00;-25451.47;5083413;28;20026;-78
2022/07/27 04:05:27;;;;;;;;;;;;;;;13.62;100.00;-25450.16;5097759;28;19977;-78
2022/07/27 04:07:52;;;;;;;;;;;;;;;13.53;100.00;-25447.53;5084058;28;19928;-77
2022/07/27 04:10:18;;;;;;;;;;;;;;;13.51;100.00;-25446.94;5072816;28;19916;-78
2022/07/27 04:12:44;;;;;;;;;;;;;;;13.55;100.00;-25448.09;5080483;28;19920;-82
2022/07/27 04:15:09;;;;;;;;;;;;;;;13.59;100.00;-25449.28;5084932;28;19952;-78
2022/07/27 04:17:35;;;;;;;;;;;;;;;13.53;100.00;-25447.53;5083103;28;19924;-80
2022/07/27 04:20:00;;;;;;;;;;;;;;;13.44;100.00;-25444.91;5080444;28;20402;-80
2022/07/27 04:22:27;;;;;;;;;;;;;;;13.39;100.00;-25443.44;5089917;28;19923;-81
2022/07/27 04:24:52;;;;;;;;;;;;;;;13.48;100.00;-25445.91;5090790;28;19924;-75
2022/07/27 04:27:17;;;;;;;;;;;;;;;13.45;100.00;-25445.19;5090589;28;19961;-75
2022/07/27 04:29:43;;;;;;;;;;;;;;;13.44;100.00;-25444.91;5082444;28;19946;-79
2022/07/27 04:32:08;;;;;;;;;;;;;;;13.43;100.00;-25444.75;5076201;28;20476;-80
2022/07/27 04:34:35;;;;;;;;;;;;;;;13.34;100.00;-25441.97;5088190;28;20563;-79
2022/07/27 04:37:00;;;;;;;;;;;;;;;13.41;100.00;-25444.03;5071470;28;19938;-80
2022/07/27 04:39:26;;;;;;;;;;;;;;;13.52;100.00;-25447.09;5071549;28;19986;-79
2022/07/27 04:41:51;;;;;;;;;;;;;;;13.56;100.00;-25448.38;5071843;28;20315;-77
2022/07/27 04:44:17;;;;;;;;;;;;;;;13.57;100.00;-25448.69;5071569;28;20007;-78
2022/07/27 04:46:42;;;;;;;;;;;;;;;13.67;100.00;-25451.31;5071065;28;19923;-80
2022/07/27 04:49:07;;;;;;;;;;;;;;;13.75;100.00;-25453.78;5073351;28;19920;-80
2022/07/27 04:51:34;;;;;;;;;;;;;;;13.83;100.00;-25456.13;5088142;28;19919;-78
2022/07/27 04:54:02;;;;;;;;;;;;;;;13.88;100.00;-25457.28;5078458;28;20397;-79
2022/07/27 04:56:27;;;;;;;;;;;;;;;13.95;100.00;-25459.34;5090388;28;19916;-76
2022/07/27 04:58:53;;;;;;;;;;;;;;;13.97;100.00;-25460.06;5084754;28;19939;-77
2022/07/27 05:01:18;;;;;;;;;;;;;;;14.09;100.00;-25463.41;5081226;28;20300;-76
2022/07/27 05:03:45;;;;;;;;;;;;;;;14.14;100.00;-25464.72;5067340;28;19927;-77
2022/07/27 05:06:10;;;;;;;;;;;;;;;14.25;100.00;-25467.94;5074695;28;19945;-76
2022/07/27 05:08:35;;;;;;;;;;;;;;;14.36;100.00;-25471.00;5083308;28;19976;-79
2022/07/27 05:11:00;;;;;;;;;;;;;;;14.40;100.00;-25472.16;5070483;28;19916;-76
2022/07/27 05:13:26;;;;;;;;;;;;;;;14.31;100.00;-25469.53;5076044;28;19938;-75
2022/07/27 05:15:51;;;;;;;;;;;;;;;14.15;100.00;-25465.03;5076402;28;19921;-76
2022/07/27 05:18:17;;;;;;;;;;;;;;;14.24;100.00;-25467.50;5080173;28;19939;-76
2022/07/27 05:20:43;;;;;;;;;;;;;;;14.28;100.00;-25468.81;5095601;28;19971;-77
2022/07/27 05:23:09;;;;;;;;;;;;;;;14.42;100.00;-25472.59;5092454;28;19938;-77
2022/07/27 05:25:35;;;;;;;;;;;;;;;14.67;100.00;-25479.75;5081245;28;19955;-78
2022/07/27 05:28:00;;;;;;;;;;;;;;;14.72;100.00;-25481.34;5094918;28;20384;-77
2022/07/27 05:30:25;;;;;;;;;;;;;;;14.90;100.00;-25486.31;5085869;28;19924;-76
2022/07/27 05:32:51;;;;;;;;;;;;;;;14.85;100.00;-25484.84;5096077;28;19920;-75
2022/07/27 05:35:16;;;;;;;;;;;;;;;15.00;100.00;-25489.06;5076916;28;19920;-77
2022/07/27 05:37:42;;;;;;;;;;;;;;;14.99;100.00;-25488.78;5093445;28;19928;-77
2022/07/27 05:40:07;;;;;;;;;;;;;;;14.88;100.00;-25485.88;5085934;28;20380;-78
2022/07/27 05:42:33;;;;;;;;;;;;;;;15.03;100.00;-25490.09;5081626;28;19973;-76
2022/07/27 05:44:58;;;;;;;;;;;;;;;15.10;100.00;-25491.97;5092607;28;19956;-78
2022/07/27 05:47:24;;;;;;;;;;;;;;;15.22;100.00;-25495.31;5078773;28;19932;-78
2022/07/27 05:49:49;;;;;;;;;;;;;;;15.14;100.00;-25493.00;5081982;28;19962;-77
2022/07/27 05:52:15;;;;;;;;;;;;;;;15.06;100.00;-25490.97;5084197;28;19924;-77
2022/07/27 05:54:41;;;;;;;;;;;;;;;14.89;100.00;-25486.16;5093545;28;19916;-76
2022/07/27 05:57:06;;;;;;;;;;;;;;;14.92;100.00;-25484.97;5085920;28;19920;-77
2022/07/27 05:59:32;;;;;;;;;;;;;;;15.05;100.00;-22200.41;5075625;28;19959;-77
2022/07/27 06:01:57;;;;;;;;;;;;;;;15.33;100.00;-23194.06;5080239;28;20551;-76
2022/07/27 06:04:24;;;;;;;;;;;;;;;15.40;100.00;-23524.88;5086227;28;19924;-75
2022/07/27 06:09:33;;;;;;;;;;;;;;;15.45;100.00;-17268.63;5075658;28;19979;-75
2022/07/27 06:11:58;;;;;;;;;;;;;;;15.70;100.00;-13973.69;5088371;28;19912;-76
2022/07/27 06:14:25;;;;;;;;;;;;;;;15.83;100.00;-10672.66;5094474;28;19999;-75
2022/07/27 06:16:50;;;;;;;;;;;;;;;16.20;100.00;-8690.53;5088051;28;20023;-76
2022/07/27 06:19:17;;;;;;;;;;;;;;;16.02;100.00;-10012.56;5090905;28;19964;-76
2022/07/27 06:21:42;;;;;;;;;;;;;;;16.25;100.00;-11996.84;5074061;28;19917;-75
2022/07/27 06:24:10;;;;;;;;;;;;;;;16.35;100.00;-10344.53;5074965;28;19924;-75
2022/07/27 06:26:36;;;;;;;;;;;;;;;16.56;100.00;-13321.31;5075258;28;19928;-77
2022/07/27 06:29:01;;;;;;;;;;;;;;;16.69;100.00;-14644.72;5072602;28;20133;-77
2022/07/27 06:31:27;;;;;;;;;;;;;;;16.99;100.00;-8360.75;5075679;28;19920;-77
2022/07/27 06:33:53;;;;;;;;;;;;;;;17.13;100.00;-3388.88;5077859;28;19924;-76
2022/07/27 06:36:19;;;;;;;;;;;;;;;16.94;100.00;-8360.69;5083383;28;19931;-75
2022/07/27 06:38:44;;;;;;;;;;;;;;;17.07;100.00;-6373.00;5088047;28;19919;-77
2022/07/27 06:41:09;;;;;;;;;;;;;;;17.09;100.00;-3057.53;5093178;28;19927;-80
2022/07/27 06:43:38;;;;;;;;;;;;;;;17.50;100.00;1262.69;5093344;28;20321;-78
2022/07/27 06:46:05;;;;;;;;;;;;;;;17.85;100.00;6257.72;5092722;28;20046;-77
2022/07/27 06:48:31;;;;;;;;;;;;;;;17.81;100.00;17257.13;5080975;28;19923;-81
2022/07/27 06:50:57;;;;;;;;;;;;;;;17.99;100.00;20938.97;5088506;28;19924;-80
2022/07/27 06:53:25;;;;;;;;;;;;;;;18.24;100.00;29653.44;5077131;28;19970;-78
2022/07/27 06:55:51;;;;;;;;;;;;;;;18.69;100.00;48167.25;5073391;28;19921;-80
2022/07/27 06:58:17;;;;;;;;;;;;;;;18.64;100.00;47825.81;5072345;28;20019;-80
2022/07/27 07:00:43;;;;;;;;;;;;;;;18.66;100.00;47491.22;5072000;28;19974;-80
2022/07/27 07:03:11;;;;;;;;;;;;;;;18.19;100.00;35015.31;5072206;28;19917;-80
2022/07/27 07:05:43;;;;;;;;;;;;;;;18.07;100.00;23617.78;5072647;28;19922;-80
2022/07/27 07:08:10;;;;;;;;;;;;;;;18.14;100.00;19608.72;5072338;28;19912;-81
2022/07/27 07:10:37;;;;;;;;;;;;;;;17.94;100.00;21605.34;5073273;28;19928;-78
2022/07/27 07:13:03;;;;;;;;;;;;;;;18.52;100.00;27323.47;5093021;28;19919;-79
2022/07/27 07:15:29;;;;;;;;;;;;;;;18.65;100.00;26660.69;5088095;28;19917;-78
2022/07/27 07:17:54;;;;;;;;;;;;;;;18.30;100.00;30997.84;5072437;28;20035;-77
2022/07/27 07:20:20;;;;;;;;;;;;;;;17.98;100.00;22609.72;5073056;28;19912;-79
2022/07/27 07:22:45;;;;;;;;;;;;;;;18.61;100.00;31352.16;5073324;28;19961;-78
2022/07/27 07:25:10;;;;;;;;;;;;;;;19.11;100.00;60360.75;5079829;28;19928;-80
2022/07/27 07:27:36;;;;;;;;;;;;;;;18.72;100.00;102448.63;5072947;28;19920;-77
2022/07/27 07:30:02;;;;;;;;;;;;;;;19.09;100.00;103539.06;5070179;28;19920;-77
2022/07/27 07:32:28;;;;;;;;;;;;;;;20.13;100.00;96196.69;5072230;28;19921;-78
2022/07/27 07:34:54;;;;;;;;;;;;;;;20.49;100.00;147873.72;5073130;28;19928;-78
2022/07/27 07:37:19;;;;;;;;;;;;;;;20.45;100.00;147866.03;5088321;28;19922;-77
2022/07/27 07:39:46;;;;;;;;;;;;;;;20.37;100.00;147844.22;5093605;28;19916;-77
2022/07/27 07:42:11;;;;;;;;;;;;;;;20.56;100.00;147891.66;5089920;28;19946;-78
2022/07/27 07:44:39;;;;;;;;;;;;;;;21.08;100.00;148021.13;5081136;28;19924;-77
2022/07/27 07:47:04;;;;;;;;;;;;;;;20.75;100.00;147940.38;5071634;28;20264;-77
2022/07/27 07:49:29;;;;;;;;;;;;;;;20.59;100.00;147899.34;5072007;28;19916;-76
2022/07/27 07:51:55;;;;;;;;;;;;;;;20.30;100.00;147826.31;5071872;28;19923;-78
2022/07/27 07:54:21;;;;;;;;;;;;;;;20.71;100.00;147930.16;5071689;28;19916;-77
2022/07/27 07:56:47;;;;;;;;;;;;;;;21.34;100.00;148087.75;5072689;28;19916;-77
2022/07/27 07:59:12;;;;;;;;;;;;;;;22.00;100.00;148251.97;5073067;28;19928;-76
2022/07/27 08:01:38;;;;;;;;;;;;;;;22.57;100.00;148394.34;5071656;28;20337;-76
2022/07/27 08:04:03;;;;;;;;;;;;;;;23.43;100.00;148607.44;5071010;28;19917;-78
2022/07/27 08:06:28;;;;;;;;;;;;;;;22.61;100.00;148402.06;5071648;28;19931;-78
2022/07/27 08:08:54;;;;;;;;;;;;;;;23.39;100.00;148597.19;5071509;28;20003;-79
2022/07/27 08:11:19;;;;;;;;;;;;;;;23.76;100.00;148690.91;5071178;28;19917;-78
2022/07/27 08:13:45;;;;;;;;;;;;;;;24.50;100.00;148875.91;5071837;28;19917;-76
2022/07/27 08:16:10;;;;;;;;;;;;;;;24.29;100.00;148823.22;5070611;28;20292;-78
2022/07/27 08:18:36;;;;;;;;;;;;;;;23.82;100.00;148706.31;5071489;28;19923;-77
2022/07/27 08:21:01;;;;;;;;;;;;;;;23.08;100.00;148521.44;5071505;28;20209;-78
2022/07/27 08:23:27;;;;;;;;;;;;;;;24.05;100.00;148761.56;5070831;28;20011;-77
2022/07/27 08:25:53;;;;;;;;;;;;;;;23.28;100.00;148570.25;5068939;28;19931;-77
2022/07/27 08:28:18;;;;;;;;;;;;;;;23.91;100.00;148726.91;5071481;28;19921;-78
2022/07/27 08:30:44;;;;;;;;;;;;;;;22.49;100.00;148372.56;5081134;28;19920;-76
2022/07/27 08:33:11;;;;;;;;;;;;;;;21.94;100.00;148235.25;5104631;28;19916;-76
2022/07/27 08:35:36;;;;;;;;;;;;;;;20.94;100.00;147986.50;5072684;28;19912;-77
2022/07/27 08:38:03;;;;;;;;;;;;;;;21.49;100.00;148125.00;5071306;28;20551;-79
2022/07/27 08:40:30;;;;;;;;;;;;;;;20.27;100.00;147819.91;5072076;28;19970;-78
2022/07/27 08:43:00;;;;;;;;;;;;;;;19.99;100.00;147750.72;5087278;28;20391;-78
2022/07/27 08:45:25;;;;;;;;;;;;;;;19.71;100.00;147681.53;5086282;28;19934;-77
2022/07/27 08:47:51;;;;;;;;;;;;;;;18.98;100.00;147499.75;5077353;28;20410;-80
2022/07/27 08:50:24;;;;;;;;;;;;;;;18.94;100.00;147488.22;5069992;28;19984;-78
2022/07/27 08:52:49;;;;;;;;;;;;;;;18.69;100.00;147425.47;5070069;28;19916;-78
2022/07/27 08:55:15;;;;;;;;;;;;;;;18.79;100.00;147452.34;5070842;28;19916;-78
2022/07/27 08:57:40;;;;;;;;;;;;;;;18.74;100.00;147438.31;5071928;28;20030;-79
2022/07/27 09:00:05;;;;;;;;;;;;;;;18.61;100.00;147406.28;5103495;28;20377;-77
2022/07/27 09:02:31;;;;;;;;;;;;;;;18.63;100.00;147411.44;5104481;28;19985;-79
2022/07/27 09:04:56;;;;;;;;;;;;;;;18.76;100.00;147443.41;5070765;28;20327;-78
2022/07/27 09:07:31;;;;;;;;;;;;;;;19.05;100.00;147515.09;5069626;28;19939;-78
2022/07/27 09:09:56;;;;;;;;;;;;;;;19.31;100.00;147581.69;5070741;28;20429;-79
2022/07/27 09:12:26;;;;;;;;;;;;;;;19.39;100.00;147600.91;5070816;28;19917;-77
2022/07/27 09:15:01;;;;;;;;;;;;;;;19.33;100.00;147586.81;5071042;28;19923;-77
2022/07/27 09:17:26;;;;;;;;;;;;;;;19.26;100.00;147567.59;5106610;28;20419;-78
2022/07/27 09:19:57;;;;;;;;;;;;;;;19.41;100.00;147606.00;5072421;28;19917;-79
2022/07/27 09:22:38;;;;;;;;;;;;;;;19.71;100.00;147681.53;5088651;28;19942;-76
2022/07/27 09:25:04;;;;;;;;;;;;;;;20.18;100.00;147796.84;5072744;28;19956;-80
2022/07/27 09:27:29;;;;;;;;;;;;;;;21.18;100.00;148046.78;5104660;28;19971;-78
2022/07/27 09:30:05;;;;;;;;;;;;;;;21.96;100.00;148240.41;5071863;28;19920;-79
2022/07/27 09:32:31;;;;;;;;;;;;;;;22.82;100.00;148454.69;5074253;28;19947;-78
2022/07/27 09:35:00;;;;;;;;;;;;;;;22.48;100.00;148370.00;5112260;28;20004;-79
2022/07/27 09:37:28;;;;;;;;;;;;;;;21.62;100.00;148157.03;5079629;28;19955;-79
2022/07/27 09:40:10;;;;;;;;;;;;;;;20.37;100.00;147844.22;5074043;28;19958;-81
2022/07/27 09:42:38;;;;;;;;;;;;;;;20.82;100.00;147957.06;5091380;28;20378;-81
2022/07/27 09:45:23;;;;;;;;;;;;;;;20.69;100.00;147925.00;5091388;28;19935;-81
2022/07/27 09:47:50;;;;;;;;;;;;;;;20.41;100.00;147854.50;5092181;28;19912;-81
2022/07/27 09:50:16;;;;;;;;;;;;;;;21.43;100.00;148108.31;5091281;28;20326;-80
2022/07/27 09:52:43;;;;;;;;;;;;;;;21.69;100.00;148175.00;5085387;28;19916;-80
2022/07/27 09:55:09;;;;;;;;;;;;;;;21.93;100.00;148234.00;5070972;28;19923;-81
2022/07/27 09:57:55;;;;;;;;;;;;;;;22.17;100.00;148294.28;5070868;28;19967;-78
2022/07/27 10:00:20;;;;;;;;;;;;;;;21.51;100.00;148130.13;5069616;28;19913;-80
2022/07/27 10:02:49;;;;;;;;;;;;;;;21.66;100.00;148167.31;5073030;28;20011;-79
2022/07/27 10:05:18;;;;;;;;;;;;;;;21.19;100.00;148049.31;5107677;28;19927;-79
2022/07/27 10:07:45;;;;;;;;;;;;;;;20.91;100.00;147978.81;5076224;28;19917;-78
2022/07/27 10:10:11;;;;;;;;;;;;;;;21.43;100.00;148109.56;5107097;28;19917;-80
2022/07/27 10:12:37;;;;;;;;;;;;;;;21.11;100.00;148030.06;5075359;28;19944;-82
2022/07/27 10:15:02;;;;;;;;;;;;;;;20.56;100.00;147892.94;5073938;28;19928;-81
2022/07/27 10:17:28;;;;;;;;;;;;;;;20.30;100.00;147827.59;5074295;28;19920;-79
2022/07/27 10:19:55;;;;;;;;;;;;;;;19.51;100.00;147630.31;5074781;28;19916;-79
2022/07/27 10:22:39;;;;;;;;;;;;;;;19.32;100.00;147582.97;5111255;28;19974;-78
2022/07/27 10:25:04;;;;;;;;;;;;;;;19.14;100.00;147539.47;5095922;28;19920;-78
2022/07/27 10:27:30;;;;;;;;;;;;;;;19.07;100.00;147520.25;5088474;28;19960;-79
2022/07/27 10:29:58;;;;;;;;;;;;;;;18.85;100.00;147466.50;5088977;28;19928;-79
2022/07/27 10:32:25;;;;;;;;;;;;;;;18.86;100.00;147469.03;5094592;28;20391;-79
2022/07/27 10:34:50;;;;;;;;;;;;;;;18.88;100.00;147472.88;5096232;28;20424;-77
2022/07/27 10:37:23;;;;;;;;;;;;;;;18.84;100.00;147463.88;5094799;28;19962;-77
2022/07/27 10:39:50;;;;;;;;;;;;;;;18.69;100.00;147426.78;5077390;28;19923;-77
2022/07/27 10:42:19;;;;;;;;;;;;;;;18.99;100.00;147502.31;5075512;28;20368;-79
2022/07/27 10:44:52;;;;;;;;;;;;;;;19.02;100.00;147508.72;5074161;28;20015;-78
2022/07/27 10:47:26;;;;;;;;;;;;;;;19.30;100.00;147579.13;5073744;28;19923;-77
2022/07/27 10:50:12;;;;;;;;;;;;;;;19.42;100.00;147607.28;5080618;28;19927;-80
2022/07/27 10:52:46;;;;;;;;;;;;;;;19.49;100.00;147625.22;5072173;28;19991;-77
2022/07/27 10:55:31;;;;;;;;;;;;;;;19.58;100.00;147648.25;5072698;28;19917;-78
2022/07/27 10:58:08;;;;;;;;;;;;;;;19.35;100.00;147591.91;5106872;28;19979;-79
2022/07/27 11:00:49;;;;;;;;;;;;;;;19.26;100.00;147568.88;5105934;28;20015;-79
2022/07/27 11:03:23;;;;;;;;;;;;;;;19.42;100.00;147608.59;5073657;28;19921;-77
2022/07/27 11:05:56;;;;;;;;;;;;;;;19.37;100.00;147597.06;5106523;28;19962;-79
2022/07/27 11:08:27;;;;;;;;;;;;;;;19.16;100.00;147544.56;5073287;28;19919;-79
2022/07/27 11:10:53;;;;;;;;;;;;;;;19.17;100.00;147545.81;5073243;28;19923;-78
2022/07/27 11:13:19;;;;;;;;;;;;;;;19.16;100.00;147544.56;5078877;28;19916;-78
2022/07/27 11:15:51;;;;;;;;;;;;;;;19.44;100.00;147613.69;5079642;28;19916;-78
2022/07/27 11:18:17;;;;;;;;;;;;;;;19.24;100.00;147563.75;5080324;28;20364;-77
2022/07/27 11:20:42;;;;;;;;;;;;;;;19.69;100.00;147676.41;5078775;28;19924;-77
2022/07/27 11:23:17;;;;;;;;;;;;;;;19.81;100.00;147704.63;5096042;28;19943;-80
2022/07/27 11:25:56;;;;;;;;;;;;;;;19.69;100.00;147676.41;5085030;28;20388;-79
2022/07/27 11:28:27;;;;;;;;;;;;;;;19.70;100.00;147679.00;5083111;28;20015;-79
2022/07/27 11:30:52;;;;;;;;;;;;;;;19.93;100.00;147735.38;5078131;28;19920;-79
2022/07/27 11:33:17;;;;;;;;;;;;;;;19.76;100.00;147691.78;5072208;28;19916;-81
2022/07/27 11:35:50;;;;;;;;;;;;;;;20.03;100.00;147761.00;5071499;28;19959;-81
2022/07/27 11:38:16;;;;;;;;;;;;;;;20.01;100.00;147755.88;5073350;28;19923;-80
2022/07/27 11:40:46;;;;;;;;;;;;;;;19.92;100.00;147732.84;5072986;28;19920;-80
2022/07/27 11:43:50;;;;;;;;;;;;;;;20.12;100.00;147781.47;5106582;28;19962;-82
2022/07/27 11:46:21;;;;;;;;;;;;;;;20.12;100.00;147782.78;5051998;28;19924;-80
2022/07/27 11:48:51;;;;;;;;;;;;;;;20.49;100.00;147874.97;5035398;28;20635;-80
2022/07/27 11:51:16;;;;;;;;;;;;;;;20.70;100.00;147927.56;5053305;28;19963;-78
2022/07/27 11:54:10;;;;;;;;;;;;;;;20.76;100.00;147942.94;5072850;28;20284;-81
2022/07/27 11:56:36;;;;;;;;;;;;;;;20.61;100.00;147904.47;5070824;28;19931;-82
2022/07/27 11:59:04;;;;;;;;;;;;;;;20.44;100.00;147863.44;5072779;28;19917;-80
2022/07/27 12:01:30;;;;;;;;;;;;;;;21.04;100.00;148012.16;5052926;28;19944;-80
2022/07/27 12:04:12;;;;;;;;;;;;;;;20.93;100.00;147983.97;5053328;28;19920;-79
2022/07/27 12:06:41;;;;;;;;;;;;;;;20.80;100.00;147953.22;5064951;28;20372;-81
2022/07/27 12:09:08;;;;;;;;;;;;;;;21.17;100.00;148044.19;5072873;28;19920;-79
2022/07/27 12:12:03;;;;;;;;;;;;;;;21.49;100.00;148125.00;5072738;28;19985;-80
2022/07/27 12:14:38;;;;;;;;;;;;;;;21.06;100.00;148017.28;5067948;28;20015;-82
2022/07/27 12:17:08;;;;;;;;;;;;;;;20.84;100.00;147962.19;5072212;28;19917;-82
2022/07/27 12:19:33;;;;;;;;;;;;;;;20.84;100.00;147960.91;5073764;28;19963;-80
2022/07/27 12:22:01;;;;;;;;;;;;;;;20.67;100.00;147919.88;5072441;28;19917;-81
2022/07/27 12:24:33;;;;;;;;;;;;;;;20.49;100.00;147873.72;5072050;28;20322;-82
2022/07/27 12:27:03;;;;;;;;;;;;;;;20.30;100.00;147826.31;5072185;28;19931;-82
2022/07/27 12:29:28;;;;;;;;;;;;;;;20.69;100.00;147925.00;5070501;28;19916;-79
2022/07/27 12:32:00;;;;;;;;;;;;;;;20.91;100.00;147978.81;5070216;28;19923;-80